createdAt,value
2019-03-20T00:01:26.664Z,-0.50
2019-03-20T00:03:56.957Z,-0.40
2019-03-20T00:06:27.137Z,-0.50
2019-03-20T00:08:57.359Z,-0.50
2019-03-20T00:11:27.729Z,-0.50
2019-03-20T00:13:57.946Z,-0.50
2019-03-20T00:16:28.204Z,-0.50
2019-03-20T00:18:58.398Z,-0.50
2019-03-20T00:21:28.811Z,-0.50
2019-03-20T00:23:59.110Z,-0.60
2019-03-20T00:26:29.493Z,-0.60
2019-03-20T00:28:59.733Z,-0.60
2019-03-20T00:31:29.995Z,-0.60
2019-03-20T00:34:00.307Z,-0.60
2019-03-20T00:36:30.689Z,-0.70
2019-03-20T00:39:00.994Z,-0.70
2019-03-20T00:41:31.395Z,-0.70
2019-03-20T00:44:01.711Z,-0.70
2019-03-20T00:46:32.084Z,-0.70
2019-03-20T00:49:02.389Z,-0.80
2019-03-20T00:51:32.618Z,-0.80
2019-03-20T00:54:02.911Z,-0.80
2019-03-20T00:56:33.250Z,-0.80
2019-03-20T00:59:03.544Z,-0.80
2019-03-20T01:01:33.960Z,-0.90
2019-03-20T01:04:04.451Z,-0.90
2019-03-20T01:06:34.772Z,-0.90
2019-03-20T01:09:06.732Z,-0.90
2019-03-20T01:11:37.173Z,-0.90
2019-03-20T01:14:07.565Z,-0.90
2019-03-20T01:16:38.025Z,-0.90
2019-03-20T01:19:08.310Z,-0.90
2019-03-20T01:21:38.730Z,-1.00
2019-03-20T01:24:09.047Z,-1.00
2019-03-20T01:26:39.362Z,-1.10
2019-03-20T01:29:09.593Z,-1.10
2019-03-20T01:31:39.905Z,-1.20
2019-03-20T01:34:10.199Z,-1.20
2019-03-20T01:36:40.603Z,-1.10
2019-03-20T01:39:11.142Z,-1.10
2019-03-20T01:41:41.629Z,-1.10
2019-03-20T01:44:11.848Z,-1.10
2019-03-20T01:46:42.161Z,-1.10
2019-03-20T01:49:12.292Z,-1.10
2019-03-20T01:51:42.532Z,-1.10
2019-03-20T01:54:12.777Z,-1.10
2019-03-20T01:56:43.240Z,-1.10
2019-03-20T01:59:13.389Z,-1.10
2019-03-20T02:01:44.401Z,-1.20
2019-03-20T02:04:14.715Z,-1.10
2019-03-20T02:06:45.246Z,-1.10
2019-03-20T02:09:15.681Z,-1.10
2019-03-20T02:11:46.007Z,-1.10
2019-03-20T02:14:16.157Z,-1.10
2019-03-20T02:16:46.571Z,-1.00
2019-03-20T02:19:16.805Z,-1.00
2019-03-20T02:21:47.260Z,-1.00
2019-03-20T02:24:17.711Z,-1.00
2019-03-20T02:26:47.975Z,-1.10
2019-03-20T02:29:18.373Z,-1.10
2019-03-20T02:31:48.900Z,-1.10
2019-03-20T02:34:19.299Z,-1.10
2019-03-20T02:36:49.543Z,-1.20
2019-03-20T02:39:20.095Z,-1.20
2019-03-20T02:41:50.357Z,-1.20
2019-03-20T02:44:20.719Z,-1.30
2019-03-20T02:46:50.939Z,-1.20
2019-03-20T02:49:21.268Z,-1.30
2019-03-20T02:51:51.593Z,-1.30
2019-03-20T02:54:21.940Z,-1.30
2019-03-20T02:56:52.184Z,-1.40
2019-03-20T02:59:22.342Z,-1.40
2019-03-20T03:01:52.471Z,-1.40
2019-03-20T03:04:22.685Z,-1.40
2019-03-20T03:06:52.930Z,-1.40
2019-03-20T03:09:23.169Z,-1.40
2019-03-20T03:11:53.397Z,-1.40
2019-03-20T03:14:23.606Z,-1.50
2019-03-20T03:16:55.506Z,-1.40
2019-03-20T03:19:25.800Z,-1.40
2019-03-20T03:21:56.157Z,-1.40
2019-03-20T03:24:26.453Z,-1.40
2019-03-20T03:26:57.798Z,-1.40
2019-03-20T03:29:28.072Z,-1.40
2019-03-20T03:31:58.507Z,-1.40
2019-03-20T03:34:28.686Z,-1.50
2019-03-20T03:36:59.017Z,-1.50
2019-03-20T03:39:29.269Z,-1.50
2019-03-20T03:42:06.931Z,-1.60
2019-03-20T03:44:37.087Z,-1.60
2019-03-20T03:47:07.263Z,-1.70
2019-03-20T03:49:37.543Z,-1.60
2019-03-20T03:52:07.924Z,-1.60
2019-03-20T03:54:38.114Z,-1.60
2019-03-20T03:57:08.508Z,-1.60
2019-03-20T03:59:38.658Z,-1.60
2019-03-20T04:02:08.991Z,-1.60
2019-03-20T04:04:39.411Z,-1.70
2019-03-20T04:07:09.783Z,-1.70
2019-03-20T04:09:40.039Z,-1.70
2019-03-20T04:12:10.394Z,-1.70
2019-03-20T04:14:40.774Z,-1.70
2019-03-20T04:17:28.245Z,-1.70
2019-03-20T04:19:58.565Z,-1.70
2019-03-20T04:22:28.793Z,-1.70
2019-03-20T04:24:59.149Z,-1.70
2019-03-20T04:27:29.539Z,-1.80
2019-03-20T04:29:59.870Z,-1.70
2019-03-20T04:32:30.195Z,-1.70
2019-03-20T04:35:00.514Z,-1.70
2019-03-20T04:37:30.811Z,-1.70
2019-03-20T04:40:01.058Z,-1.70
2019-03-20T04:42:31.343Z,-1.70
2019-03-20T04:45:01.597Z,-1.80
2019-03-20T04:47:31.819Z,-1.80
2019-03-20T04:50:01.993Z,-1.80
2019-03-20T04:52:32.160Z,-1.90
2019-03-20T04:55:02.420Z,-1.90
2019-03-20T04:57:32.629Z,-1.90
2019-03-20T05:00:02.981Z,-1.90
2019-03-20T05:02:33.308Z,-1.80
2019-03-20T05:05:05.007Z,-1.80
2019-03-20T05:07:35.476Z,-1.90
2019-03-20T05:10:07.410Z,-1.90
2019-03-20T05:12:37.701Z,-1.90
2019-03-20T05:15:08.823Z,-2.00
2019-03-20T05:17:39.316Z,-2.00
2019-03-20T05:20:11.800Z,-2.00
2019-03-20T05:22:42.233Z,-2.00
2019-03-20T05:25:12.935Z,-2.00
2019-03-20T05:27:43.226Z,-2.00
2019-03-20T05:30:14.252Z,-2.00
2019-03-20T05:32:44.539Z,-2.00
2019-03-20T05:35:15.030Z,-2.00
2019-03-20T05:37:45.291Z,-1.90
2019-03-20T05:40:15.739Z,-1.90
2019-03-20T05:42:46.164Z,-1.90
2019-03-20T05:45:16.603Z,-1.80
2019-03-20T05:47:47.106Z,-1.80
2019-03-20T05:50:17.449Z,-1.70
2019-03-20T05:52:47.847Z,-1.70
2019-03-20T05:55:18.241Z,-1.70
2019-03-20T05:57:48.614Z,-1.60
2019-03-20T06:00:19.653Z,-1.60
2019-03-20T06:02:49.966Z,-1.60
2019-03-20T06:05:20.445Z,-1.50
2019-03-20T06:07:50.815Z,-1.50
2019-03-20T06:10:21.220Z,-1.40
2019-03-20T06:12:51.592Z,-1.40
2019-03-20T06:15:21.896Z,-1.30
2019-03-20T06:17:53.924Z,-1.20
2019-03-20T06:20:24.091Z,-1.10
2019-03-20T06:22:54.360Z,-0.90
2019-03-20T06:25:24.739Z,-0.90
2019-03-20T06:27:56.061Z,-0.80
2019-03-20T06:30:26.384Z,-0.70
2019-03-20T06:32:56.838Z,-0.70
2019-03-20T06:35:26.980Z,-0.50
2019-03-20T06:37:57.285Z,-0.40
2019-03-20T06:40:27.436Z,-0.30
2019-03-20T06:42:57.915Z,-0.20
2019-03-20T06:45:28.205Z,0.00
2019-03-20T06:47:58.624Z,0.10
2019-03-20T06:50:28.856Z,0.20
2019-03-20T06:52:59.108Z,0.40
2019-03-20T06:55:29.415Z,0.50
2019-03-20T06:57:59.825Z,0.60
2019-03-20T07:01:23.479Z,0.80
2019-03-20T07:04:25.995Z,0.80
2019-03-20T07:07:43.252Z,1.00
2019-03-20T07:10:17.839Z,1.20
2019-03-20T07:12:48.162Z,1.20
2019-03-20T07:15:18.416Z,1.30
2019-03-20T07:17:48.767Z,1.40
2019-03-20T07:20:19.021Z,1.50
2019-03-20T07:22:49.283Z,1.50
2019-03-20T07:25:19.746Z,1.60
2019-03-20T07:27:50.087Z,1.70
2019-03-20T07:30:20.490Z,1.80
2019-03-20T07:32:50.911Z,2.00
2019-03-20T07:35:21.218Z,2.20
2019-03-20T07:37:55.894Z,2.30
2019-03-20T07:40:23.510Z,2.50
2019-03-20T07:42:53.667Z,2.70
2019-03-20T07:45:24.065Z,2.90
2019-03-20T07:47:54.307Z,3.10
2019-03-20T07:50:24.679Z,3.20
2019-03-20T07:52:54.872Z,3.50
2019-03-20T07:55:25.164Z,3.60
2019-03-20T07:57:55.470Z,3.80
2019-03-20T08:00:25.791Z,3.90
2019-03-20T08:02:56.157Z,4.10
2019-03-20T08:05:29.508Z,4.30
2019-03-20T08:08:06.693Z,4.40
2019-03-20T08:10:30.842Z,4.60
2019-03-20T08:13:01.328Z,4.60
2019-03-20T08:15:31.604Z,4.70
2019-03-20T08:18:01.950Z,4.80
2019-03-20T08:20:32.276Z,5.00
2019-03-20T08:23:02.544Z,5.10
2019-03-20T08:25:32.934Z,5.30
2019-03-20T08:28:03.271Z,5.40
2019-03-20T08:30:33.568Z,5.60
2019-03-20T08:33:03.888Z,5.70
2019-03-20T08:35:34.219Z,5.80
2019-03-20T08:38:04.567Z,5.90
2019-03-20T08:40:35.370Z,6.10
2019-03-20T08:43:11.789Z,6.20
2019-03-20T08:45:42.280Z,6.30
2019-03-20T08:48:30.985Z,6.40
2019-03-20T08:51:01.482Z,6.50
2019-03-20T08:53:31.854Z,6.60
2019-03-20T08:56:02.147Z,6.70
2019-03-20T08:58:38.500Z,6.80
2019-03-20T09:01:08.763Z,6.90
2019-03-20T09:03:39.169Z,6.90
2019-03-20T09:06:09.514Z,6.80
2019-03-20T09:08:39.700Z,6.90
2019-03-20T09:11:09.872Z,7.00
2019-03-20T09:13:40.223Z,7.10
2019-03-20T09:16:10.733Z,7.20
2019-03-20T09:18:41.008Z,7.30
2019-03-20T09:21:11.179Z,7.40
2019-03-20T09:23:41.583Z,7.50
2019-03-20T09:26:11.848Z,7.50
2019-03-20T09:28:42.053Z,7.60
2019-03-20T09:31:12.422Z,7.70
2019-03-20T09:33:42.936Z,7.80
2019-03-20T09:36:14.296Z,7.90
2019-03-20T09:38:44.621Z,8.00
2019-03-20T09:41:14.868Z,8.10
2019-03-20T09:43:45.136Z,8.20
2019-03-20T09:46:15.295Z,8.20
2019-03-20T09:48:45.688Z,8.20
2019-03-20T09:51:16.100Z,8.30
2019-03-20T09:53:46.368Z,8.20
2019-03-20T09:56:16.626Z,8.20
2019-03-20T09:58:47.072Z,8.30
2019-03-20T10:01:17.382Z,8.40
2019-03-20T10:03:47.633Z,8.50
2019-03-20T10:06:17.908Z,8.50
2019-03-20T10:08:54.145Z,8.60
2019-03-20T10:11:20.221Z,8.50
2019-03-20T10:13:50.506Z,8.60
2019-03-20T10:16:20.758Z,8.60
2019-03-20T10:18:51.150Z,8.70
2019-03-20T10:21:21.567Z,8.80
2019-03-20T10:23:51.818Z,8.90
2019-03-20T10:26:22.166Z,8.80
2019-03-20T10:28:52.500Z,8.80
2019-03-20T10:31:22.722Z,8.80
2019-03-20T10:33:52.960Z,8.90
2019-03-20T10:36:23.255Z,9.10
2019-03-20T10:38:53.685Z,9.10
2019-03-20T10:41:24.238Z,9.20
2019-03-20T10:43:54.714Z,9.30
2019-03-20T10:46:24.987Z,9.40
2019-03-20T10:48:56.371Z,9.40
2019-03-20T10:51:26.760Z,9.30
2019-03-20T10:53:57.097Z,9.40
2019-03-20T10:56:27.320Z,9.40
2019-03-20T10:58:57.709Z,9.50
2019-03-20T11:01:28.086Z,9.50
2019-03-20T11:03:58.461Z,9.60
2019-03-20T11:06:28.901Z,9.60
2019-03-20T11:08:59.146Z,9.70
2019-03-20T11:11:29.622Z,9.80
2019-03-20T11:13:59.987Z,9.80
2019-03-20T11:16:30.244Z,9.80
2019-03-20T11:19:00.585Z,9.80
2019-03-20T11:21:31.078Z,9.70
2019-03-20T11:24:01.409Z,9.60
2019-03-20T11:26:31.669Z,9.60
2019-03-20T11:29:01.982Z,9.60
2019-03-20T11:31:32.620Z,9.50
2019-03-20T11:34:02.885Z,9.60
2019-03-20T11:36:33.187Z,9.70
2019-03-20T11:39:04.684Z,9.80
2019-03-20T11:41:35.029Z,9.90
2019-03-20T11:44:05.632Z,9.90
2019-03-20T11:46:36.024Z,9.90
2019-03-20T11:49:06.506Z,10.00
2019-03-20T11:51:36.749Z,10.20
2019-03-20T11:54:07.256Z,10.30
2019-03-20T11:56:37.599Z,10.20
2019-03-20T11:59:08.010Z,10.20
2019-03-20T12:01:38.307Z,10.20
2019-03-20T12:04:08.709Z,10.10
2019-03-20T12:06:39.109Z,10.10
2019-03-20T12:09:10.709Z,10.20
2019-03-20T12:11:45.774Z,10.10
2019-03-20T12:14:13.230Z,10.20
2019-03-20T12:16:43.504Z,10.30
2019-03-20T12:19:13.713Z,10.40
2019-03-20T12:21:44.044Z,10.50
2019-03-20T12:24:14.494Z,10.60
2019-03-20T12:26:44.899Z,10.70
2019-03-20T12:29:15.224Z,10.80
2019-03-20T12:31:45.599Z,10.80
2019-03-20T12:34:15.962Z,10.80
2019-03-20T12:36:46.598Z,10.60
2019-03-20T12:39:17.066Z,10.50
2019-03-20T12:41:47.377Z,10.70
2019-03-20T12:44:17.598Z,10.70
2019-03-20T12:46:48.030Z,10.60
2019-03-20T12:49:18.461Z,10.70
2019-03-20T12:51:48.872Z,10.70
2019-03-20T12:54:19.099Z,10.70
2019-03-20T12:56:49.497Z,10.70
2019-03-20T12:59:19.957Z,10.70
2019-03-20T13:01:50.390Z,10.80
2019-03-20T13:04:20.672Z,10.80
2019-03-20T13:06:51.037Z,10.90
2019-03-20T13:09:21.374Z,10.90
2019-03-20T13:11:51.834Z,10.90
2019-03-20T13:14:22.290Z,10.90
2019-03-20T13:16:52.654Z,11.00
2019-03-20T13:19:23.244Z,10.90
2019-03-20T13:21:53.682Z,10.90
2019-03-20T13:24:24.086Z,11.00
2019-03-20T13:26:54.584Z,11.20
2019-03-20T13:29:24.998Z,11.10
2019-03-20T13:31:55.469Z,11.10
2019-03-20T13:34:25.855Z,11.20
2019-03-20T13:36:56.253Z,11.40
2019-03-20T13:39:26.659Z,11.40
2019-03-20T13:41:57.006Z,11.40
2019-03-20T13:44:27.202Z,11.20
2019-03-20T13:46:57.585Z,11.20
2019-03-20T13:49:27.869Z,11.20
2019-03-20T13:51:58.248Z,11.20
2019-03-20T13:54:28.574Z,11.20
2019-03-20T13:56:58.771Z,11.20
2019-03-20T13:59:29.096Z,11.30
2019-03-20T14:01:59.378Z,11.20
2019-03-20T14:04:29.672Z,11.30
2019-03-20T14:06:59.965Z,11.40
2019-03-20T14:09:30.388Z,11.40
2019-03-20T14:12:00.750Z,11.50
2019-03-20T14:14:31.054Z,11.50
2019-03-20T14:17:04.367Z,11.50
2019-03-20T14:19:34.682Z,11.50
2019-03-20T14:22:05.176Z,11.60
2019-03-20T14:24:36.102Z,11.70
2019-03-20T14:27:06.571Z,11.60
2019-03-20T14:29:36.886Z,11.60
2019-03-20T14:32:07.330Z,11.60
2019-03-20T14:34:37.661Z,11.60
2019-03-20T14:37:07.927Z,11.50
2019-03-20T14:39:38.265Z,11.40
2019-03-20T14:42:08.624Z,11.20
2019-03-20T14:44:38.911Z,11.30
2019-03-20T14:47:09.219Z,11.50
2019-03-20T14:49:39.580Z,11.60
2019-03-20T14:52:09.873Z,11.50
2019-03-20T14:54:40.050Z,11.50
2019-03-20T14:57:10.405Z,11.50
2019-03-20T14:59:40.676Z,11.40
2019-03-20T15:02:11.037Z,11.40
2019-03-20T15:04:43.422Z,11.50
2019-03-20T15:07:22.808Z,11.50
2019-03-20T15:09:53.193Z,11.50
2019-03-20T15:12:23.587Z,11.50
2019-03-20T15:14:53.896Z,11.60
2019-03-20T15:17:24.336Z,11.50
2019-03-20T15:19:54.608Z,11.50
2019-03-20T15:22:24.954Z,11.40
2019-03-20T15:24:55.253Z,11.40
2019-03-20T15:27:25.641Z,11.50
2019-03-20T15:29:55.991Z,11.40
2019-03-20T15:32:26.510Z,11.40
2019-03-20T15:34:56.781Z,11.40
2019-03-20T15:37:27.016Z,11.40
2019-03-20T15:39:57.273Z,11.40
2019-03-20T15:42:27.912Z,11.30
2019-03-20T15:44:58.418Z,11.30
2019-03-20T15:47:29.322Z,11.30
2019-03-20T15:49:59.731Z,11.30
2019-03-20T15:52:30.182Z,11.30
2019-03-20T15:55:00.535Z,11.20
2019-03-20T15:57:30.866Z,11.20
2019-03-20T16:00:01.070Z,11.20
2019-03-20T16:02:31.400Z,11.20
2019-03-20T16:05:01.686Z,11.20
2019-03-20T16:07:32.114Z,11.20
2019-03-20T16:10:02.477Z,11.20
2019-03-20T16:12:32.925Z,11.10
2019-03-20T16:15:03.360Z,11.00
2019-03-20T16:17:33.802Z,10.90
2019-03-20T16:20:05.502Z,10.90
2019-03-20T16:22:35.926Z,10.90
2019-03-20T16:25:07.272Z,10.80
2019-03-20T16:27:37.610Z,10.80
2019-03-20T16:30:11.630Z,10.70
2019-03-20T16:32:42.100Z,10.60
2019-03-20T16:35:12.845Z,10.60
2019-03-20T16:37:43.218Z,10.50
2019-03-20T16:40:17.391Z,10.50
2019-03-20T16:42:47.782Z,10.50
2019-03-20T16:45:21.480Z,10.50
2019-03-20T16:47:51.839Z,10.40
2019-03-20T16:50:22.445Z,10.30
2019-03-20T16:52:52.863Z,10.30
2019-03-20T16:55:23.377Z,10.40
2019-03-20T16:57:53.830Z,10.30
2019-03-20T17:00:26.563Z,10.30
2019-03-20T17:02:57.124Z,10.20
2019-03-20T17:05:27.733Z,10.10
2019-03-20T17:07:58.235Z,10.00
2019-03-20T17:10:31.948Z,9.90
2019-03-20T17:13:02.438Z,9.90
2019-03-20T17:15:33.024Z,9.90
2019-03-20T17:18:03.507Z,9.80
2019-03-20T17:20:33.943Z,9.60
2019-03-20T17:23:04.772Z,9.40
2019-03-20T17:25:35.285Z,9.40
2019-03-20T17:28:06.533Z,9.40
2019-03-20T17:30:38.004Z,9.30
2019-03-20T17:33:08.520Z,9.20
2019-03-20T17:35:38.833Z,9.10
2019-03-20T17:38:09.202Z,9.00
2019-03-20T17:40:39.679Z,8.90
2019-03-20T17:43:10.166Z,8.80
2019-03-20T17:45:40.566Z,8.70
2019-03-20T17:48:11.016Z,8.70
2019-03-20T17:50:41.355Z,8.50
2019-03-20T17:53:11.687Z,8.40
2019-03-20T17:55:42.168Z,8.40
2019-03-20T17:58:12.597Z,8.40
2019-03-20T18:00:45.167Z,8.40
2019-03-20T18:03:15.925Z,8.40
2019-03-20T18:05:46.350Z,8.40
2019-03-20T18:08:16.785Z,8.40
2019-03-20T18:10:47.229Z,8.30
2019-03-20T18:13:17.638Z,8.30
2019-03-20T18:15:48.016Z,8.20
2019-03-20T18:18:18.410Z,8.10
2019-03-20T18:20:48.779Z,8.10
2019-03-20T18:23:19.066Z,8.00
2019-03-20T18:25:49.493Z,7.90
2019-03-20T18:28:21.675Z,7.80
2019-03-20T18:30:51.781Z,7.60
2019-03-20T18:33:22.112Z,7.40
2019-03-20T18:35:52.615Z,7.30
2019-03-20T18:38:23.142Z,7.10
2019-03-20T18:40:53.533Z,6.80
2019-03-20T18:43:23.905Z,6.70
2019-03-20T18:45:54.429Z,6.50
2019-03-20T18:48:24.683Z,6.30
2019-03-20T18:50:55.123Z,6.20
2019-03-20T18:53:25.551Z,6.00
2019-03-20T18:55:55.985Z,5.90
2019-03-20T18:58:26.442Z,5.80
2019-03-20T19:00:57.006Z,5.70
2019-03-20T19:03:27.542Z,5.60
2019-03-20T19:06:09.034Z,5.60
2019-03-20T19:08:39.718Z,5.50
2019-03-20T19:11:10.162Z,5.40
2019-03-20T19:13:40.478Z,5.30
2019-03-20T19:16:10.967Z,5.20
2019-03-20T19:18:41.390Z,5.10
2019-03-20T19:21:11.757Z,5.00
2019-03-20T19:23:42.394Z,5.00
2019-03-20T19:26:12.873Z,4.90
2019-03-20T19:28:45.659Z,4.80
2019-03-20T19:31:16.210Z,4.80
2019-03-20T19:36:22.785Z,4.60
2019-03-20T19:38:53.079Z,4.60
2019-03-20T19:41:23.479Z,4.50
2019-03-20T19:43:53.869Z,4.50
2019-03-20T19:46:24.488Z,4.40
2019-03-20T19:48:54.951Z,4.40
2019-03-20T19:51:26.019Z,4.30
2019-03-20T19:53:56.175Z,4.30
2019-03-20T19:56:26.591Z,4.20
2019-03-20T19:58:56.999Z,4.20
2019-03-20T20:01:27.427Z,4.10
2019-03-20T20:03:57.784Z,4.10
2019-03-20T20:06:28.332Z,4.00
2019-03-20T20:08:58.619Z,4.00
2019-03-20T20:11:28.838Z,3.90
2019-03-20T20:13:59.233Z,3.90
2019-03-20T20:16:29.639Z,3.80
2019-03-20T20:19:00.050Z,3.70
2019-03-20T20:21:30.601Z,3.70
2019-03-20T20:24:00.937Z,3.60
2019-03-20T20:26:31.330Z,3.60
2019-03-20T20:29:01.658Z,3.50
2019-03-20T20:31:32.148Z,3.50
2019-03-20T20:34:02.384Z,3.50
2019-03-20T20:36:32.781Z,3.40
2019-03-20T20:39:03.054Z,3.40
2019-03-20T20:41:33.492Z,3.40
2019-03-20T20:44:03.894Z,3.50
2019-03-20T20:46:34.319Z,3.50
2019-03-20T20:49:04.619Z,3.40
2019-03-20T20:51:35.984Z,3.40
2019-03-20T20:54:07.955Z,3.40
2019-03-20T20:56:38.152Z,3.30
2019-03-20T20:59:08.413Z,3.30
2019-03-20T21:03:28.921Z,3.30
2019-03-20T21:05:59.186Z,3.20
2019-03-20T21:08:29.685Z,3.20
2019-03-20T21:11:00.113Z,3.10
2019-03-20T21:13:30.544Z,3.10
2019-03-20T21:16:03.556Z,3.10
2019-03-20T21:19:37.317Z,3.00
2019-03-20T21:23:06.473Z,3.00
2019-03-20T21:25:38.296Z,2.90
2019-03-20T21:29:15.738Z,2.90
2019-03-20T21:32:12.072Z,2.80
2019-03-20T21:35:55.802Z,2.70
2019-03-20T21:38:23.862Z,2.60
2019-03-20T21:42:05.578Z,2.60
2019-03-20T21:45:42.313Z,2.60
2019-03-20T21:48:13.536Z,2.50
2019-03-20T21:51:22.729Z,2.40
2019-03-20T21:54:58.032Z,2.40
2019-03-20T21:58:07.399Z,2.30
2019-03-20T22:02:07.011Z,2.20
2019-03-20T22:04:38.302Z,2.20
2019-03-20T22:07:10.535Z,2.10
2019-03-20T22:10:40.334Z,2.10
2019-03-20T22:13:29.577Z,2.00
2019-03-20T22:17:10.193Z,2.00
2019-03-20T22:20:26.170Z,2.00
2019-03-20T22:23:40.840Z,2.00
2019-03-20T22:27:14.394Z,2.00
2019-03-20T22:29:45.627Z,1.90
2019-03-20T22:33:27.372Z,1.80
2019-03-20T22:36:10.702Z,1.80
2019-03-20T22:39:59.677Z,1.80
2019-03-20T22:43:02.901Z,1.70
2019-03-20T22:46:38.325Z,1.70
2019-03-20T22:49:45.850Z,1.60
2019-03-20T22:53:19.024Z,1.60
2019-03-20T22:56:50.212Z,1.60
2019-03-20T22:59:21.285Z,1.60
2019-03-20T23:02:25.029Z,1.60
2019-03-20T23:04:59.513Z,1.60
2019-03-20T23:07:30.963Z,1.60
2019-03-20T23:10:02.023Z,1.60
2019-03-20T23:12:33.115Z,1.60
2019-03-20T23:15:04.494Z,1.60
2019-03-20T23:17:35.538Z,1.50
2019-03-20T23:20:09.340Z,1.50
2019-03-20T23:22:40.420Z,1.50
2019-03-20T23:25:12.205Z,1.50
2019-03-20T23:27:43.463Z,1.40
2019-03-20T23:30:19.214Z,1.40
2019-03-20T23:32:50.410Z,1.30
2019-03-20T23:35:21.674Z,1.30
2019-03-20T23:37:52.709Z,1.30
2019-03-20T23:40:23.747Z,1.30
2019-03-20T23:42:55.070Z,1.30
2019-03-20T23:45:26.264Z,1.20
2019-03-20T23:48:18.936Z,1.20
2019-03-20T23:50:52.598Z,1.10
2019-03-20T23:53:23.800Z,1.10
2019-03-20T23:55:54.856Z,1.10
2019-03-20T23:58:26.012Z,1.00
